Time;durP1;ratioP1;P1;durP2;ratioP2;P2;SDS_P1;SDS_P2;PMS_P1;PMS_P2;Temp;Humidity;BMP_temperature;BMP_pressure;BME280_temperature;BME280_humidity;BME280_pressure;Samples;Min_cycle;Max_cycle;Signal;HPM_P1;HPM_P2
2021/11/03 00:07:53;;;;;;;2.38;0.90;;;;;;;;;;21010132;28;20070;-57
2021/11/03 00:17:55;;;;;;;2.60;0.80;;;;;;;;;;21009428;28;20481;-59
2021/11/03 00:27:57;;;;;;;0.65;0.40;;;;;;;;;;21008456;28;20102;-58
2021/11/03 00:37:59;;;;;;;1.27;0.60;;;;;;;;;;21007813;28;20063;-58
2021/11/03 00:48:01;;;;;;;1.13;0.75;;;;;;;;;;21007575;28;20127;-59
2021/11/03 00:58:04;;;;;;;1.30;0.50;;;;;;;;;;21006577;28;20114;-58
2021/11/03 01:08:07;;;;;;;0.80;0.60;;;;;;;;;;21005798;28;20127;-58
2021/11/03 01:18:09;;;;;;;1.85;0.60;;;;;;;;;;21005455;28;20048;-58
2021/11/03 01:28:11;;;;;;;1.00;0.50;;;;;;;;;;21004502;28;20052;-58
2021/11/03 01:38:13;;;;;;;1.38;0.50;;;;;;;;;;21003850;28;20053;-57
2021/11/03 01:48:15;;;;;;;1.90;0.70;;;;;;;;;;21002684;28;20072;-59
2021/11/03 01:58:20;;;;;;;1.50;0.93;;;;;;;;;;21001392;28;20374;-59
2021/11/03 02:08:22;;;;;;;;;;;;;;;;;;21001484;28;20064;-59
2021/11/03 02:18:27;;;;;;;0.70;0.45;;;;;;;;;;20999660;28;20448;-59
2021/11/03 02:28:29;;;;;;;1.17;0.55;;;;;;;;;;20999829;28;20065;-59
2021/11/03 02:38:38;;;;;;;2.35;0.80;;;;;;;;;;20998639;28;20153;-57
2021/11/03 02:48:42;;;;;;;1.75;0.40;;;;;;;;;;20998995;28;20447;-58
2021/11/03 02:58:46;;;;;;;;;;;;;;;;;;20997695;28;20487;-59
2021/11/03 03:08:56;;;;;;;2.20;0.60;;;;;;;;;;20996663;28;20007;-55
2021/11/03 03:19:00;;;;;;;4.47;0.73;;;;;;;;;;20995562;28;20049;-56
2021/11/03 03:29:04;;;;;;;2.60;0.82;;;;;;;;;;20995143;28;20044;-57
2021/11/03 03:39:18;;;;;;;3.65;1.02;;;;;;;;;;20995734;28;20056;-57
2021/11/03 03:49:40;;;;;;;5.30;1.17;;;;;;;;;;20995747;28;20053;-57
2021/11/03 03:59:51;;;;;;;1.85;0.68;;;;;;;;;;20994060;28;20084;-59
2021/11/03 04:09:55;;;;;;;2.47;0.70;;;;;;;;;;20995181;28;20203;-58
2021/11/03 04:20:00;;;;;;;2.22;0.70;;;;;;;;;;20993482;28;20048;-58
2021/11/03 04:30:06;;;;;;;3.33;0.90;;;;;;;;;;20993186;28;20079;-59
2021/11/03 04:40:19;;;;;;;2.87;0.60;;;;;;;;;;21002464;28;20048;-58
2021/11/03 04:50:28;;;;;;;2.00;0.85;;;;;;;;;;21007143;28;20453;-58
2021/11/03 05:00:30;;;;;;;2.78;1.13;;;;;;;;;;21006002;28;20106;-58
2021/11/03 05:10:33;;;;;;;2.47;0.60;;;;;;;;;;21005073;28;20056;-58
2021/11/03 05:20:36;;;;;;;2.65;0.82;;;;;;;;;;21004583;28;20079;-58
2021/11/03 05:30:38;;;;;;;5.40;0.90;;;;;;;;;;21004065;28;20048;-56
2021/11/03 05:40:41;;;;;;;2.72;0.70;;;;;;;;;;21002923;28;20051;-58
2021/11/03 05:50:43;;;;;;;1.73;0.70;;;;;;;;;;21001143;28;20052;-59
2021/11/03 06:00:45;;;;;;;1.90;0.60;;;;;;;;;;21000883;28;20461;-59
2021/11/03 06:10:49;;;;;;;2.88;0.80;;;;;;;;;;21000322;28;20071;-58
2021/11/03 06:20:51;;;;;;;2.08;0.90;;;;;;;;;;21000417;28;20063;-58
2021/11/03 06:30:54;;;;;;;8.65;1.15;;;;;;;;;;20999346;28;20048;-57
2021/11/03 06:40:58;;;;;;;3.50;0.95;;;;;;;;;;20998140;28;20237;-58
2021/11/03 06:51:02;;;;;;;7.75;1.45;;;;;;;;;;20997478;28;20060;-58
2021/11/03 07:01:08;;;;;;;5.95;1.75;;;;;;;;;;20995986;28;20064;-60
2021/11/03 07:11:10;;;;;;;;;;;;;;;;;;20995763;28;20050;-58
2021/11/03 07:21:13;;;;;;;3.83;1.33;;;;;;;;;;20995227;28;19947;-56
2021/11/03 07:31:16;;;;;;;5.25;1.50;;;;;;;;;;20994678;28;20056;-57
2021/11/03 07:41:18;;;;;;;9.25;0.98;;;;;;;;;;20994291;28;20052;-58
2021/11/03 07:51:21;;;;;;;8.10;1.20;;;;;;;;;;20994254;28;20102;-57
2021/11/03 08:01:24;;;;;;;3.88;1.60;;;;;;;;;;20993633;28;20056;-57
2021/11/03 08:11:29;;;;;;;5.10;1.55;;;;;;;;;;20997151;28;20079;-61
2021/11/03 08:21:32;;;;;;;2.15;0.65;;;;;;;;;;21009006;28;20462;-61
2021/11/03 08:31:35;;;;;;;3.33;0.80;;;;;;;;;;21007937;28;20087;-60
2021/11/03 08:41:38;;;;;;;3.25;1.35;;;;;;;;;;21007090;28;20095;-60
2021/11/03 08:51:42;;;;;;;3.97;1.88;;;;;;;;;;21021458;28;20424;-60
2021/11/03 09:01:45;;;;;;;1.08;0.65;;;;;;;;;;21005588;28;20156;-61
2021/11/03 09:11:51;;;;;;;2.53;0.80;;;;;;;;;;21004438;28;20048;-59
2021/11/03 09:21:53;;;;;;;4.40;0.90;;;;;;;;;;21003258;28;20071;-60
2021/11/03 09:31:55;;;;;;;2.25;1.00;;;;;;;;;;21004255;28;20045;-59
2021/11/03 09:41:59;;;;;;;1.15;0.50;;;;;;;;;;21002952;28;20048;-62
2021/11/03 09:52:04;;;;;;;2.13;0.70;;;;;;;;;;21001442;28;20052;-60
2021/11/03 10:02:22;;;;;;;1.50;0.68;;;;;;;;;;21000703;28;20440;-59
2021/11/03 10:12:25;;;;;;;1.27;0.73;;;;;;;;;;20999584;28;20067;-59
2021/11/03 10:22:33;;;;;;;6.18;1.35;;;;;;;;;;20998837;28;20394;-60
2021/11/03 10:32:40;;;;;;;2.20;0.68;;;;;;;;;;20998313;28;20055;-60
2021/11/03 10:42:46;;;;;;;1.80;0.82;;;;;;;;;;20999205;28;20440;-61
2021/11/03 10:52:53;;;;;;;1.48;0.60;;;;;;;;;;20998433;28;20412;-60
2021/11/03 11:03:10;;;;;;;2.72;0.65;;;;;;;;;;20997285;28;20094;-60
2021/11/03 11:13:16;;;;;;;1.35;0.70;;;;;;;;;;20995592;28;20105;-59
2021/11/03 11:23:24;;;;;;;0.88;0.50;;;;;;;;;;20995686;28;20045;-60
2021/11/03 11:33:36;;;;;;;1.95;0.70;;;;;;;;;;20996485;28;20136;-60
2021/11/03 11:43:42;;;;;;;1.52;0.80;;;;;;;;;;20994160;28;20044;-59
2021/11/03 11:53:47;;;;;;;2.33;0.63;;;;;;;;;;21010625;28;20055;-59
2021/11/03 12:03:54;;;;;;;1.40;0.65;;;;;;;;;;21009864;28;20076;-60
2021/11/03 12:14:11;;;;;;;1.42;0.45;;;;;;;;;;21009567;28;20765;-61
2021/11/03 12:24:29;;;;;;;0.88;0.47;;;;;;;;;;21008560;28;20050;-59
2021/11/03 12:34:38;;;;;;;1.10;0.57;;;;;;;;;;21007615;28;20048;-60
2021/11/03 12:44:43;;;;;;;2.63;0.73;;;;;;;;;;21006535;28;20055;-62
2021/11/03 12:54:52;;;;;;;0.90;0.50;;;;;;;;;;21003824;28;20102;-59
2021/11/03 13:04:58;;;;;;;1.20;0.57;;;;;;;;;;21004466;28;20087;-60
2021/11/03 13:15:18;;;;;;;2.77;1.20;;;;;;;;;;21003141;28;20515;-60
2021/11/03 13:25:24;;;;;;;1.50;0.70;;;;;;;;;;21004517;28;20048;-60
2021/11/03 13:35:29;;;;;;;0.98;0.60;;;;;;;;;;21003908;28;20477;-60
2021/11/03 13:45:36;;;;;;;1.15;0.60;;;;;;;;;;21002236;28;20045;-60
2021/11/03 13:55:58;;;;;;;2.40;0.50;;;;;;;;;;21001257;28;20053;-60
2021/11/03 14:06:19;;;;;;;0.70;0.50;;;;;;;;;;20986852;28;20056;-61
2021/11/03 14:16:27;;;;;;;1.48;0.70;;;;;;;;;;21001605;28;20059;-61
2021/11/03 14:26:29;;;;;;;1.90;0.57;;;;;;;;;;21000101;28;20394;-58
2021/11/03 14:36:32;;;;;;;2.10;0.90;;;;;;;;;;20996950;28;20074;-57
2021/11/03 14:46:42;;;;;;;1.80;0.90;;;;;;;;;;20997264;28;20045;-58
2021/11/03 14:56:44;;;;;;;1.40;0.80;;;;;;;;;;20996613;28;20510;-57
2021/11/03 15:06:46;;;;;;;2.75;0.90;;;;;;;;;;20996696;28;20477;-59
2021/11/03 15:16:50;;;;;;;2.75;1.10;;;;;;;;;;20995979;28;20182;-57
2021/11/03 15:26:52;;;;;;;2.10;0.68;;;;;;;;;;20995728;28;20477;-59
2021/11/03 15:36:54;;;;;;;2.47;0.95;;;;;;;;;;21010732;28;20114;-60
2021/11/03 15:46:56;;;;;;;1.30;0.70;;;;;;;;;;20994343;28;20045;-57
2021/11/03 15:56:57;;;;;;;1.60;0.57;;;;;;;;;;20994012;28;20045;-59
2021/11/03 16:06:59;;;;;;;3.17;0.80;;;;;;;;;;20993112;28;20124;-62
2021/11/03 16:17:03;;;;;;;2.55;0.50;;;;;;;;;;20992331;28;20053;-60
2021/11/03 16:27:05;;;;;;;2.05;0.60;;;;;;;;;;20993386;28;20481;-59
2021/11/03 16:37:09;;;;;;;1.40;0.60;;;;;;;;;;21019418;28;20049;-57
2021/11/03 16:47:22;;;;;;;3.85;1.52;;;;;;;;;;21066536;28;20056;-60
2021/11/03 16:57:25;;;;;;;1.30;0.60;;;;;;;;;;21061005;28;20053;-52
2021/11/03 17:07:27;;;;;;;1.48;0.70;;;;;;;;;;21002808;28;20136;-58
2021/11/03 17:17:30;;;;;;;3.25;0.80;;;;;;;;;;21003488;28;20080;-56
2021/11/03 17:27:34;;;;;;;1.30;0.68;;;;;;;;;;21002509;28;20053;-57
2021/11/03 17:37:38;;;;;;;3.57;1.10;;;;;;;;;;21000059;28;20052;-59
2021/11/03 17:47:40;;;;;;;2.33;0.88;;;;;;;;;;20994596;28;20064;-58
2021/11/03 17:57:45;;;;;;;3.17;0.80;;;;;;;;;;21023731;28;20060;-61
2021/11/03 18:07:47;;;;;;;4.13;1.10;;;;;;;;;;21083746;28;20080;-61
2021/11/03 18:17:53;;;;;;;3.28;1.23;;;;;;;;;;21073576;28;20047;-60
2021/11/03 18:27:56;;;;;;;2.53;0.90;;;;;;;;;;21081564;28;20048;-59
2021/11/03 18:37:59;;;;;;;3.08;1.02;;;;;;;;;;21081986;28;20048;-62
2021/11/03 18:48:02;;;;;;;2.60;1.00;;;;;;;;;;21080013;28;20131;-63
2021/11/03 18:58:05;;;;;;;3.33;1.48;;;;;;;;;;21078873;28;20055;-69
2021/11/03 19:08:07;;;;;;;3.22;1.17;;;;;;;;;;21078126;28;20484;-69
2021/11/03 19:18:10;;;;;;;2.95;1.02;;;;;;;;;;21077816;28;20404;-65
2021/11/03 19:28:12;;;;;;;3.25;1.00;;;;;;;;;;21077406;28;20048;-68
2021/11/03 19:38:22;;;;;;;3.13;1.30;;;;;;;;;;21076679;28;20075;-68
2021/11/03 19:48:24;;;;;;;3.03;1.67;;;;;;;;;;21076746;28;20082;-64
2021/11/03 19:58:26;;;;;;;2.45;1.35;;;;;;;;;;21076047;28;20113;-69
2021/11/03 20:08:38;;;;;;;3.40;1.80;;;;;;;;;;21081856;28;20050;-67
2021/11/03 20:18:42;;;;;;;3.47;1.55;;;;;;;;;;21073007;28;20055;-66
2021/11/03 20:28:45;;;;;;;2.40;1.40;;;;;;;;;;21090798;28;20047;-68
2021/11/03 20:38:47;;;;;;;2.13;1.25;;;;;;;;;;21089638;28;20312;-72
2021/11/03 20:48:50;;;;;;;2.75;1.52;;;;;;;;;;21089479;28;20102;-70
2021/11/03 20:58:52;;;;;;;5.25;2.30;;;;;;;;;;21090107;28;20056;-63
2021/11/03 21:08:54;;;;;;;6.18;2.60;;;;;;;;;;21069521;28;20408;-68
2021/11/03 21:18:58;;;;;;;1.85;1.00;;;;;;;;;;21087632;28;20059;-70
2021/11/03 21:29:00;;;;;;;6.15;2.70;;;;;;;;;;21087369;28;20055;-63
2021/11/03 21:39:03;;;;;;;2.67;0.80;;;;;;;;;;21085946;28;20422;-68
2021/11/03 21:49:05;;;;;;;1.30;0.68;;;;;;;;;;21086151;28;20418;-65
2021/11/03 21:59:08;;;;;;;4.00;2.45;;;;;;;;;;21084373;28;20048;-68
2021/11/03 22:09:10;;;;;;;2.83;1.60;;;;;;;;;;21083479;28;20075;-68
2021/11/03 22:19:12;;;;;;;12.38;6.65;;;;;;;;;;21083745;28;20503;-63
2021/11/03 22:29:14;;;;;;;16.88;7.43;;;;;;;;;;21082607;28;20044;-64
2021/11/03 22:39:17;;;;;;;6.78;3.05;;;;;;;;;;21082279;28;20048;-65
2021/11/03 22:49:19;;;;;;;1.65;1.08;;;;;;;;;;21082060;28;20044;-70
2021/11/03 22:59:21;;;;;;;4.35;2.38;;;;;;;;;;21080276;28;20477;-68
2021/11/03 23:09:23;;;;;;;6.07;3.72;;;;;;;;;;21077420;28;20060;-72
2021/11/03 23:19:26;;;;;;;5.97;1.70;;;;;;;;;;21078326;28;20044;-68
2021/11/03 23:29:27;;;;;;;9.20;4.63;;;;;;;;;;21057722;28;20051;-68
2021/11/03 23:39:30;;;;;;;15.27;6.97;;;;;;;;;;21074396;28;20086;-68
2021/11/03 23:49:32;;;;;;;16.42;7.60;;;;;;;;;;21073897;28;20098;-67
2021/11/03 23:59:34;;;;;;;4.30;2.38;;;;;;;;;;21026035;28;1440560;-63
